Time;durP1;ratioP1;P1;durP2;ratioP2;P2;SDS_P1;SDS_P2;PMS_P1;PMS_P2;Temp;Humidity;BMP_temperature;BMP_pressure;BME280_temperature;BME280_humidity;BME280_pressure;Samples;Min_cycle;Max_cycle;Signal;HPM_P1;HPM_P2
2023/06/08 00:01:28;;;;;;;10.68;5.00;;;;;;;;;;7367005;19;20025;-64
2023/06/08 00:03:54;;;;;;;16.13;5.10;;;;;;;;;;7367595;19;20010;-65
2023/06/08 00:06:22;;;;;;;8.95;4.57;;;;;;;;;;7369567;19;20073;-65
2023/06/08 00:08:49;;;;;;;7.32;4.65;;;;;;;;;;7367973;19;20686;-65
2023/06/08 00:11:14;;;;;;;10.82;4.70;;;;;;;;;;7372343;19;20019;-64
2023/06/08 00:13:40;;;;;;;9.27;4.40;;;;;;;;;;7391063;19;20034;-64
2023/06/08 00:16:05;;;;;;;7.20;4.75;;;;;;;;;;7368918;19;20034;-64
2023/06/08 00:18:30;;;;;;;9.13;4.95;;;;;;;;;;7367941;19;20012;-63
2023/06/08 00:20:56;;;;;;;9.40;4.53;;;;;;;;;;7369313;19;20029;-64
2023/06/08 00:23:22;;;;;;;9.00;4.75;;;;;;;;;;7369896;19;20026;-65
2023/06/08 00:25:48;;;;;;;10.32;5.05;;;;;;;;;;7389342;19;20087;-65
2023/06/08 00:28:13;;;;;;;11.45;5.20;;;;;;;;;;7365509;19;20543;-65
2023/06/08 00:30:38;;;;;;;9.10;5.75;;;;;;;;;;7368232;19;20021;-64
2023/06/08 00:33:04;;;;;;;7.97;5.45;;;;;;;;;;7367962;19;20010;-65
2023/06/08 00:35:30;;;;;;;8.15;5.30;;;;;;;;;;7367871;19;20007;-65
2023/06/08 00:37:55;;;;;;;12.77;5.03;;;;;;;;;;7387006;19;19999;-65
2023/06/08 00:40:21;;;;;;;9.65;5.40;;;;;;;;;;7366940;19;20006;-65
2023/06/08 00:42:46;;;;;;;11.95;5.38;;;;;;;;;;7367244;19;20055;-65
2023/06/08 00:45:11;;;;;;;8.98;5.15;;;;;;;;;;7368065;19;20025;-65
2023/06/08 00:47:37;;;;;;;9.90;6.20;;;;;;;;;;7370622;19;20009;-65
2023/06/08 00:50:04;;;;;;;9.52;5.05;;;;;;;;;;7383206;19;19995;-65
2023/06/08 00:52:30;;;;;;;10.63;5.30;;;;;;;;;;7390937;19;20016;-66
2023/06/08 00:54:58;;;;;;;10.50;5.75;;;;;;;;;;7364884;19;20006;-66
2023/06/08 00:57:25;;;;;;;8.45;5.70;;;;;;;;;;7368169;19;20019;-65
2023/06/08 00:59:52;;;;;;;9.90;5.10;;;;;;;;;;7367778;19;20494;-65
2023/06/08 01:02:19;;;;;;;8.68;5.00;;;;;;;;;;7367531;19;20129;-65
2023/06/08 01:04:45;;;;;;;9.93;5.18;;;;;;;;;;7389625;19;20439;-65
2023/06/08 01:07:22;;;;;;;9.60;5.53;;;;;;;;;;7366937;19;20018;-64
2023/06/08 01:10:06;;;;;;;10.88;5.82;;;;;;;;;;7366962;19;20018;-65
2023/06/08 01:12:50;;;;;;;8.57;5.03;;;;;;;;;;7367268;19;20107;-65
2023/06/08 01:15:26;;;;;;;10.35;5.15;;;;;;;;;;7365144;19;20003;-66
2023/06/08 01:17:57;;;;;;;13.02;5.47;;;;;;;;;;7363737;19;20209;-64
2023/06/08 01:20:52;;;;;;;10.93;5.63;;;;;;;;;;7364979;19;20079;-65
2023/06/08 01:23:20;;;;;;;8.45;5.57;;;;;;;;;;7365258;19;20014;-62
2023/06/08 01:25:48;;;;;;;9.52;5.22;;;;;;;;;;7386487;19;20162;-62
2023/06/08 01:28:13;;;;;;;9.63;5.45;;;;;;;;;;7360793;19;20015;-65
2023/06/08 01:30:46;;;;;;;7.40;5.32;;;;;;;;;;7364057;19;20417;-66
2023/06/08 01:33:14;;;;;;;8.77;5.47;;;;;;;;;;7366654;19;20006;-65
2023/06/08 01:35:41;;;;;;;8.45;5.22;;;;;;;;;;7370840;19;20030;-65
2023/06/08 01:38:47;;;;;;;8.48;5.30;;;;;;;;;;7369887;19;20074;-65
2023/06/08 01:41:20;;;;;;;8.02;5.05;;;;;;;;;;7371821;19;20010;-64
2023/06/08 01:43:48;;;;;;;9.10;5.63;;;;;;;;;;7396210;19;20018;-64
2023/06/08 01:46:15;;;;;;;10.93;5.63;;;;;;;;;;7372963;19;20352;-65
2023/06/08 01:48:45;;;;;;;7.43;5.53;;;;;;;;;;7373241;19;20014;-64
2023/06/08 01:51:12;;;;;;;9.25;5.90;;;;;;;;;;7374862;19;20037;-65
2023/06/08 01:53:37;;;;;;;9.57;5.70;;;;;;;;;;7375290;19;20011;-65
2023/06/08 01:56:03;;;;;;;7.50;5.40;;;;;;;;;;7389056;19;20012;-63
2023/06/08 01:58:28;;;;;;;8.95;5.75;;;;;;;;;;7392478;19;20011;-66
2023/06/08 02:00:54;;;;;;;8.45;5.97;;;;;;;;;;7375181;19;20013;-66
2023/06/08 02:03:19;;;;;;;7.85;5.50;;;;;;;;;;7375747;19;20011;-65
2023/06/08 02:05:44;;;;;;;9.88;6.30;;;;;;;;;;7374484;19;20014;-65
2023/06/08 02:08:10;;;;;;;7.20;5.00;;;;;;;;;;7371880;19;20091;-65
2023/06/08 02:10:35;;;;;;;7.60;5.63;;;;;;;;;;7396876;19;20010;-65
2023/06/08 02:13:00;;;;;;;10.85;5.53;;;;;;;;;;7375324;19;20010;-65
2023/06/08 02:15:26;;;;;;;11.65;6.22;;;;;;;;;;7375408;19;20472;-65
2023/06/08 02:17:51;;;;;;;8.45;5.68;;;;;;;;;;7375268;19;20018;-65
2023/06/08 02:20:17;;;;;;;8.10;5.88;;;;;;;;;;7376672;19;20637;-65
2023/06/08 02:22:42;;;;;;;10.73;5.72;;;;;;;;;;7398405;19;20033;-65
2023/06/08 02:25:11;;;;;;;9.07;6.25;;;;;;;;;;7377233;19;20011;-65
2023/06/08 02:27:37;;;;;;;8.35;5.60;;;;;;;;;;7373423;19;20030;-65
2023/06/08 02:30:04;;;;;;;7.70;5.25;;;;;;;;;;7377728;19;20425;-65
2023/06/08 02:32:32;;;;;;;8.15;5.63;;;;;;;;;;7376296;19;20042;-65
2023/06/08 02:35:03;;;;;;;10.00;6.22;;;;;;;;;;7394345;19;20027;-65
2023/06/08 02:37:28;;;;;;;12.40;5.78;;;;;;;;;;7373835;19;20010;-64
2023/06/08 02:39:54;;;;;;;10.93;6.35;;;;;;;;;;7372075;19;20041;-65
2023/06/08 02:42:19;;;;;;;10.77;6.30;;;;;;;;;;7373558;19;20024;-65
2023/06/08 02:44:47;;;;;;;9.60;6.10;;;;;;;;;;7370512;19;20441;-64
2023/06/08 02:47:14;;;;;;;10.07;6.18;;;;;;;;;;7372014;19;20010;-64
2023/06/08 02:49:40;;;;;;;9.18;6.28;;;;;;;;;;7393105;19;19999;-64
2023/06/08 02:52:05;;;;;;;9.93;6.78;;;;;;;;;;7372673;19;20034;-65
2023/06/08 02:54:31;;;;;;;9.07;6.78;;;;;;;;;;7370543;19;20006;-65
2023/06/08 02:56:56;;;;;;;9.98;6.40;;;;;;;;;;7371230;19;20026;-65
2023/06/08 02:59:22;;;;;;;7.57;5.78;;;;;;;;;;7369050;19;20007;-65
2023/06/08 03:01:53;;;;;;;9.32;6.20;;;;;;;;;;7393262;19;20047;-65
2023/06/08 03:04:27;;;;;;;10.10;6.20;;;;;;;;;;7372359;19;20007;-65
2023/06/08 03:06:53;;;;;;;9.75;5.72;;;;;;;;;;7371883;19;20019;-64
2023/06/08 03:09:28;;;;;;;12.15;6.07;;;;;;;;;;7372072;19;20010;-65
2023/06/08 03:11:54;;;;;;;11.70;6.30;;;;;;;;;;7369747;19;20407;-65
2023/06/08 03:14:19;;;;;;;12.52;6.03;;;;;;;;;;7372167;19;20028;-65
2023/06/08 03:16:45;;;;;;;9.70;5.93;;;;;;;;;;7391076;19;20018;-65
2023/06/08 03:19:12;;;;;;;9.20;6.47;;;;;;;;;;7370329;19;20010;-65
2023/06/08 03:21:38;;;;;;;11.35;6.22;;;;;;;;;;7370659;19;20014;-65
2023/06/08 03:24:04;;;;;;;9.40;5.85;;;;;;;;;;7372145;19;20015;-65
2023/06/08 03:26:29;;;;;;;18.42;6.60;;;;;;;;;;7372087;19;20046;-65
2023/06/08 03:28:55;;;;;;;20.45;6.53;;;;;;;;;;7394450;19;20021;-65
2023/06/08 03:31:20;;;;;;;13.90;6.72;;;;;;;;;;7372569;19;20023;-64
2023/06/08 03:33:46;;;;;;;14.27;6.53;;;;;;;;;;7370532;19;20010;-65
2023/06/08 03:36:11;;;;;;;16.58;6.30;;;;;;;;;;7371099;19;20010;-65
2023/06/08 03:38:37;;;;;;;17.27;6.45;;;;;;;;;;7370394;19;20404;-65
2023/06/08 03:41:02;;;;;;;17.77;6.25;;;;;;;;;;7387347;19;20476;-65
2023/06/08 03:43:27;;;;;;;14.45;6.43;;;;;;;;;;7379620;19;20023;-65
2023/06/08 03:45:53;;;;;;;18.67;6.47;;;;;;;;;;7366350;19;20021;-65
2023/06/08 03:48:18;;;;;;;16.75;6.43;;;;;;;;;;7368182;19;20018;-65
2023/06/08 03:50:46;;;;;;;18.25;6.38;;;;;;;;;;7369342;19;20388;-65
2023/06/08 03:53:12;;;;;;;13.73;5.95;;;;;;;;;;7370277;19;20062;-64
2023/06/08 03:55:38;;;;;;;15.68;6.25;;;;;;;;;;7385943;19;20603;-65
2023/06/08 03:58:03;;;;;;;18.38;6.13;;;;;;;;;;7366648;19;20014;-65
2023/06/08 04:00:29;;;;;;;13.85;6.43;;;;;;;;;;7368777;19;20011;-65
2023/06/08 04:02:56;;;;;;;15.18;6.03;;;;;;;;;;7369107;19;20086;-65
2023/06/08 04:05:21;;;;;;;11.00;5.60;;;;;;;;;;7371098;19;20006;-65
2023/06/08 04:07:51;;;;;;;13.68;6.28;;;;;;;;;;7390290;19;20044;-65
2023/06/08 04:10:16;;;;;;;14.35;5.95;;;;;;;;;;7371457;19;20013;-65
2023/06/08 04:12:42;;;;;;;13.45;5.90;;;;;;;;;;7370535;19;20014;-64
2023/06/08 04:15:09;;;;;;;9.07;6.28;;;;;;;;;;7372162;19;20002;-65
2023/06/08 04:17:34;;;;;;;12.80;5.93;;;;;;;;;;7372068;19;20006;-65
2023/06/08 04:20:00;;;;;;;9.60;5.50;;;;;;;;;;7412073;19;20022;-64
2023/06/08 04:22:27;;;;;;;9.88;5.88;;;;;;;;;;7374729;19;20006;-65
2023/06/08 04:24:52;;;;;;;9.73;6.30;;;;;;;;;;7368598;19;20021;-64
2023/06/08 04:27:19;;;;;;;8.73;5.43;;;;;;;;;;7367507;19;20492;-65
2023/06/08 04:29:44;;;;;;;13.10;5.47;;;;;;;;;;7365759;19;20023;-65
2023/06/08 04:32:10;;;;;;;7.47;4.78;;;;;;;;;;7365930;19;20587;-65
2023/06/08 04:34:35;;;;;;;10.80;5.93;;;;;;;;;;7387815;19;20011;-65
2023/06/08 04:37:01;;;;;;;6.75;4.50;;;;;;;;;;7366501;19;20007;-65
2023/06/08 04:39:27;;;;;;;7.60;4.55;;;;;;;;;;7367847;19;20010;-65
2023/06/08 04:41:53;;;;;;;10.82;4.97;;;;;;;;;;7367028;19;20040;-64
2023/06/08 04:44:18;;;;;;;8.93;4.93;;;;;;;;;;7367844;19;20017;-64
2023/06/08 04:46:44;;;;;;;6.90;4.65;;;;;;;;;;7388242;19;20115;-63
2023/06/08 04:49:10;;;;;;;10.50;4.85;;;;;;;;;;7366925;19;20441;-64
2023/06/08 04:51:39;;;;;;;6.40;4.60;;;;;;;;;;7368212;19;20006;-64
2023/06/08 04:54:05;;;;;;;9.52;4.43;;;;;;;;;;7367299;19;20007;-64
2023/06/08 04:56:33;;;;;;;5.90;4.40;;;;;;;;;;7367535;19;20023;-64
2023/06/08 04:58:59;;;;;;;9.52;4.70;;;;;;;;;;7388776;19;20007;-65
2023/06/08 05:01:25;;;;;;;6.75;4.32;;;;;;;;;;7367166;19;20013;-65
2023/06/08 05:03:50;;;;;;;6.93;4.43;;;;;;;;;;7367764;19;20086;-65
2023/06/08 05:06:15;;;;;;;8.02;4.38;;;;;;;;;;7370448;19;20002;-65
2023/06/08 05:08:41;;;;;;;7.38;4.35;;;;;;;;;;7374164;19;20006;-66
2023/06/08 05:11:06;;;;;;;6.90;4.20;;;;;;;;;;7375433;19;19997;-65
2023/06/08 05:13:32;;;;;;;6.93;4.57;;;;;;;;;;7395667;19;20014;-65
2023/06/08 05:15:58;;;;;;;6.70;4.50;;;;;;;;;;7373612;19;20080;-65
2023/06/08 05:18:28;;;;;;;6.72;4.25;;;;;;;;;;7373309;19;20019;-64
2023/06/08 05:20:54;;;;;;;9.05;4.32;;;;;;;;;;7376342;19;20011;-65
2023/06/08 05:23:19;;;;;;;6.10;4.28;;;;;;;;;;7373593;19;20003;-65
2023/06/08 05:25:44;;;;;;;7.07;4.30;;;;;;;;;;7395406;19;20024;-65
2023/06/08 05:28:10;;;;;;;16.48;4.80;;;;;;;;;;7369994;19;20014;-65
2023/06/08 05:30:35;;;;;;;8.20;5.03;;;;;;;;;;7372093;19;20015;-65
2023/06/08 05:33:00;;;;;;;9.70;4.90;;;;;;;;;;7372521;19;20014;-65
2023/06/08 05:35:26;;;;;;;6.75;4.25;;;;;;;;;;7370027;19;20370;-65
2023/06/08 05:37:52;;;;;;;7.10;4.35;;;;;;;;;;7392861;19;20026;-65
2023/06/08 05:40:18;;;;;;;12.40;4.63;;;;;;;;;;7372267;19;20017;-65
2023/06/08 05:42:43;;;;;;;6.57;4.10;;;;;;;;;;7369786;19;20014;-65
2023/06/08 05:45:09;;;;;;;6.72;4.60;;;;;;;;;;7373464;19;20010;-65
2023/06/08 05:47:34;;;;;;;6.45;4.20;;;;;;;;;;7372078;19;20034;-65
2023/06/08 05:50:00;;;;;;;7.30;4.57;;;;;;;;;;7396327;19;20353;-65
2023/06/08 05:52:25;;;;;;;7.43;4.72;;;;;;;;;;7377566;19;20026;-64
2023/06/08 05:54:51;;;;;;;6.75;3.80;;;;;;;;;;7372911;19;20090;-64
2023/06/08 05:57:16;;;;;;;8.88;4.35;;;;;;;;;;7370929;19;20472;-65
2023/06/08 05:59:42;;;;;;;7.47;4.75;;;;;;;;;;7372097;19;20022;-66
2023/06/08 06:02:07;;;;;;;8.48;5.13;;;;;;;;;;7372455;19;20006;-64
2023/06/08 06:04:34;;;;;;;8.20;4.72;;;;;;;;;;7393880;19;20007;-64
2023/06/08 06:06:59;;;;;;;9.50;5.05;;;;;;;;;;7369762;19;20023;-65
2023/06/08 06:09:25;;;;;;;8.07;4.72;;;;;;;;;;7370636;19;20015;-65
2023/06/08 06:11:50;;;;;;;7.05;4.85;;;;;;;;;;7370364;19;20010;-65
2023/06/08 06:14:15;;;;;;;8.50;5.00;;;;;;;;;;7370803;19;20419;-66
2023/06/08 06:16:41;;;;;;;9.13;5.28;;;;;;;;;;7393157;19;20011;-66
2023/06/08 06:19:07;;;;;;;8.90;4.85;;;;;;;;;;7366912;19;20386;-65
2023/06/08 06:21:32;;;;;;;7.07;4.72;;;;;;;;;;7370205;19;20101;-66
2023/06/08 06:23:57;;;;;;;11.57;5.40;;;;;;;;;;7372159;19;20010;-66
2023/06/08 06:26:22;;;;;;;7.43;4.80;;;;;;;;;;7369277;19;21322;-66
2023/06/08 06:28:48;;;;;;;8.70;5.50;;;;;;;;;;7391370;19;20410;-67
2023/06/08 06:31:13;;;;;;;7.35;5.22;;;;;;;;;;7366409;19;20598;-65
2023/06/08 06:33:38;;;;;;;8.20;5.50;;;;;;;;;;7367386;19;20526;-66
2023/06/08 06:36:05;;;;;;;9.05;5.57;;;;;;;;;;7363026;19;20421;-63
2023/06/08 06:38:31;;;;;;;7.32;4.80;;;;;;;;;;7367739;19;20023;-65
2023/06/08 06:40:56;;;;;;;7.05;4.90;;;;;;;;;;7388568;19;20006;-66
2023/06/08 06:43:22;;;;;;;7.28;5.38;;;;;;;;;;7368983;19;20018;-64
2023/06/08 06:45:51;;;;;;;9.50;5.20;;;;;;;;;;7369919;19;20010;-66
2023/06/08 06:48:18;;;;;;;12.35;5.60;;;;;;;;;;7368844;19;20025;-65
2023/06/08 06:50:44;;;;;;;9.40;5.75;;;;;;;;;;7370643;19;20006;-65
2023/06/08 06:53:10;;;;;;;9.82;5.47;;;;;;;;;;7369097;19;20019;-65
2023/06/08 06:55:35;;;;;;;7.10;5.03;;;;;;;;;;7388433;19;20004;-65
2023/06/08 06:58:02;;;;;;;7.28;4.93;;;;;;;;;;7360729;19;20015;-64
2023/06/08 07:00:31;;;;;;;7.95;5.13;;;;;;;;;;7355813;19;20018;-67
2023/06/08 07:02:57;;;;;;;10.55;4.82;;;;;;;;;;7368982;19;20014;-64
2023/06/08 07:05:23;;;;;;;7.03;5.18;;;;;;;;;;7371249;19;20123;-64
2023/06/08 07:07:48;;;;;;;7.47;4.88;;;;;;;;;;7390302;19;20038;-64
2023/06/08 07:10:13;;;;;;;10.32;4.55;;;;;;;;;;7370976;19;20030;-65
2023/06/08 07:12:39;;;;;;;7.65;4.65;;;;;;;;;;7370675;19;20003;-65
2023/06/08 07:15:05;;;;;;;7.00;4.63;;;;;;;;;;7363984;19;20082;-64
2023/06/08 07:17:30;;;;;;;6.75;4.68;;;;;;;;;;7365135;19;20014;-66
2023/06/08 07:19:57;;;;;;;7.25;4.88;;;;;;;;;;7389244;19;20017;-66
2023/06/08 07:22:23;;;;;;;8.73;4.78;;;;;;;;;;7363406;19;20077;-65
2023/06/08 07:24:48;;;;;;;8.60;5.30;;;;;;;;;;7366887;19;20027;-66
2023/06/08 07:27:13;;;;;;;6.82;4.68;;;;;;;;;;7368739;19;20066;-65
2023/06/08 07:29:38;;;;;;;7.20;4.80;;;;;;;;;;7368532;19;20010;-66
2023/06/08 07:32:04;;;;;;;7.75;5.00;;;;;;;;;;7385157;19;20025;-64
2023/06/08 07:34:31;;;;;;;7.80;4.90;;;;;;;;;;7393273;19;20033;-63
2023/06/08 07:36:56;;;;;;;6.78;4.45;;;;;;;;;;7372475;19;20488;-66
2023/06/08 07:39:21;;;;;;;7.25;4.50;;;;;;;;;;7372225;19;20011;-64
2023/06/08 07:41:47;;;;;;;12.40;4.20;;;;;;;;;;7372294;19;20483;-64
2023/06/08 07:44:12;;;;;;;7.72;4.43;;;;;;;;;;7373713;19;20132;-65
2023/06/08 07:46:38;;;;;;;8.00;4.20;;;;;;;;;;7391393;19;20011;-66
2023/06/08 07:49:03;;;;;;;7.30;4.97;;;;;;;;;;7372691;19;20086;-66
2023/06/08 07:51:28;;;;;;;5.78;4.25;;;;;;;;;;7370838;19;20128;-65
2023/06/08 07:53:54;;;;;;;6.50;4.40;;;;;;;;;;7373404;19;20590;-64
2023/06/08 07:56:19;;;;;;;7.90;4.60;;;;;;;;;;7385551;19;20260;-64
2023/06/08 07:58:44;;;;;;;7.38;4.57;;;;;;;;;;7395304;19;20099;-64
2023/06/08 08:01:10;;;;;;;9.50;4.75;;;;;;;;;;7370849;19;20586;-65
2023/06/08 08:03:37;;;;;;;7.22;5.15;;;;;;;;;;7367904;19;20122;-64
2023/06/08 08:06:03;;;;;;;12.85;4.82;;;;;;;;;;7371491;19;20723;-64
2023/06/08 08:08:29;;;;;;;7.80;4.70;;;;;;;;;;7370351;19;20010;-65
2023/06/08 08:10:54;;;;;;;6.25;4.45;;;;;;;;;;7396500;19;20027;-64
2023/06/08 08:13:19;;;;;;;8.18;4.60;;;;;;;;;;7373157;19;20538;-64
2023/06/08 08:15:45;;;;;;;9.45;4.30;;;;;;;;;;7372755;19;20010;-63
2023/06/08 08:18:12;;;;;;;6.85;4.55;;;;;;;;;;7368725;19;19999;-63
2023/06/08 08:20:38;;;;;;;7.78;4.70;;;;;;;;;;7366635;19;20006;-65
2023/06/08 08:23:03;;;;;;;7.70;4.90;;;;;;;;;;7383978;19;20009;-63
2023/06/08 08:25:29;;;;;;;7.13;4.53;;;;;;;;;;7378724;19;20089;-64
2023/06/08 08:27:54;;;;;;;8.50;4.95;;;;;;;;;;7366725;19;20075;-66
2023/06/08 08:30:20;;;;;;;8.38;4.70;;;;;;;;;;7365903;19;20011;-65
2023/06/08 08:32:45;;;;;;;8.55;4.85;;;;;;;;;;7368091;19;20006;-63
2023/06/08 08:35:10;;;;;;;8.25;4.90;;;;;;;;;;7366557;19;20333;-63
2023/06/08 08:37:36;;;;;;;7.72;4.93;;;;;;;;;;7386544;19;20006;-63
2023/06/08 08:40:02;;;;;;;6.47;4.80;;;;;;;;;;7365614;19;20475;-63
2023/06/08 08:42:30;;;;;;;6.05;4.63;;;;;;;;;;7364371;19;20516;-64
2023/06/08 08:45:00;;;;;;;6.57;4.60;;;;;;;;;;7364804;19;20029;-63
2023/06/08 08:47:29;;;;;;;7.90;4.75;;;;;;;;;;7365246;19;20501;-64
2023/06/08 08:50:06;;;;;;;6.50;4.15;;;;;;;;;;7388205;19;20014;-66
2023/06/08 08:52:38;;;;;;;8.05;5.03;;;;;;;;;;7365817;19;20010;-65
2023/06/08 08:55:05;;;;;;;7.22;4.85;;;;;;;;;;7365090;19;20027;-63
2023/06/08 08:57:31;;;;;;;7.15;4.55;;;;;;;;;;7363046;19;20077;-64
2023/06/08 08:59:57;;;;;;;6.75;4.70;;;;;;;;;;7364384;19;20062;-63
2023/06/08 09:02:23;;;;;;;7.95;4.35;;;;;;;;;;7365069;19;20377;-61
2023/06/08 09:04:49;;;;;;;10.50;4.63;;;;;;;;;;7386253;19;20038;-64
2023/06/08 09:07:21;;;;;;;8.95;5.35;;;;;;;;;;7363978;19;20023;-63
2023/06/08 09:10:13;;;;;;;6.82;4.05;;;;;;;;;;7364063;19;20074;-65
2023/06/08 09:12:39;;;;;;;7.65;3.97;;;;;;;;;;7367419;19;20034;-65
2023/06/08 09:15:05;;;;;;;7.78;4.45;;;;;;;;;;7379996;19;20022;-70
2023/06/08 09:17:40;;;;;;;6.50;4.50;;;;;;;;;;7362850;19;20007;-64
2023/06/08 09:20:08;;;;;;;10.32;4.57;;;;;;;;;;7365803;19;20035;-65
2023/06/08 09:22:33;;;;;;;9.32;4.63;;;;;;;;;;7384602;19;20006;-64
2023/06/08 09:24:58;;;;;;;8.95;4.70;;;;;;;;;;7362922;19;20065;-67
2023/06/08 09:27:27;;;;;;;7.32;4.47;;;;;;;;;;7362061;19;20014;-67
2023/06/08 09:29:52;;;;;;;6.80;5.05;;;;;;;;;;7362375;19;20040;-68
2023/06/08 09:32:25;;;;;;;10.27;4.53;;;;;;;;;;7355151;19;19994;-68
2023/06/08 09:35:01;;;;;;;7.00;4.65;;;;;;;;;;7383901;19;20023;-67
2023/06/08 09:37:31;;;;;;;6.25;4.60;;;;;;;;;;7359839;19;20006;-68
2023/06/08 09:39:58;;;;;;;7.28;4.72;;;;;;;;;;7362782;19;20021;-67
2023/06/08 09:42:43;;;;;;;9.32;4.45;;;;;;;;;;7357224;19;20009;-68
2023/06/08 09:45:12;;;;;;;7.88;4.95;;;;;;;;;;7361835;19;20036;-68
2023/06/08 09:47:38;;;;;;;7.40;4.53;;;;;;;;;;7351004;19;20017;-68
2023/06/08 09:50:09;;;;;;;8.75;4.70;;;;;;;;;;7373913;19;20018;-68
2023/06/08 09:52:36;;;;;;;8.40;4.65;;;;;;;;;;7375981;19;20041;-68
2023/06/08 09:55:02;;;;;;;6.70;4.63;;;;;;;;;;7365859;19;20038;-68
2023/06/08 09:57:33;;;;;;;7.07;4.55;;;;;;;;;;7364934;19;20026;-68
2023/06/08 10:00:25;;;;;;;7.88;5.00;;;;;;;;;;7367967;19;20393;-68
2023/06/08 10:03:12;;;;;;;6.35;4.50;;;;;;;;;;7362946;19;20015;-68
2023/06/08 10:05:43;;;;;;;7.18;4.97;;;;;;;;;;7358789;19;20042;-68
2023/06/08 10:08:12;;;;;;;8.43;4.68;;;;;;;;;;7357991;19;20031;-68
2023/06/08 10:10:38;;;;;;;8.38;4.93;;;;;;;;;;7390338;19;20002;-68
2023/06/08 10:13:04;;;;;;;9.13;5.47;;;;;;;;;;7367639;19;20320;-67
2023/06/08 10:15:31;;;;;;;6.88;5.00;;;;;;;;;;7367740;19;20014;-68
2023/06/08 10:17:58;;;;;;;6.90;5.05;;;;;;;;;;7364030;19;20010;-69
2023/06/08 10:20:24;;;;;;;8.82;5.20;;;;;;;;;;7363715;19;20595;-67
2023/06/08 10:22:50;;;;;;;8.82;5.22;;;;;;;;;;7388627;19;20010;-68
2023/06/08 10:25:16;;;;;;;7.70;4.93;;;;;;;;;;7366423;19;20010;-69
2023/06/08 10:27:51;;;;;;;8.68;5.15;;;;;;;;;;7363113;19;20003;-69
2023/06/08 10:30:39;;;;;;;8.52;4.78;;;;;;;;;;7357556;19;20017;-68
2023/06/08 10:33:20;;;;;;;6.22;4.35;;;;;;;;;;7371896;19;20049;-69
2023/06/08 10:36:06;;;;;;;10.43;5.10;;;;;;;;;;7368068;19;20027;-67
2023/06/08 10:38:37;;;;;;;6.97;5.28;;;;;;;;;;7365682;19;20010;-68
2023/06/08 10:41:03;;;;;;;8.27;4.72;;;;;;;;;;7390168;19;20002;-69
2023/06/08 10:43:29;;;;;;;5.88;4.38;;;;;;;;;;7369986;19;20398;-68
2023/06/08 10:45:55;;;;;;;6.50;4.80;;;;;;;;;;7366908;19;20006;-67
2023/06/08 10:48:22;;;;;;;6.30;4.65;;;;;;;;;;7366530;19;20034;-66
2023/06/08 10:50:50;;;;;;;8.45;4.40;;;;;;;;;;7367873;19;20010;-65
2023/06/08 10:53:18;;;;;;;6.38;4.50;;;;;;;;;;7367092;19;20030;-66
2023/06/08 10:55:51;;;;;;;9.45;4.45;;;;;;;;;;7385353;19;20018;-66
2023/06/08 10:58:19;;;;;;;7.35;4.30;;;;;;;;;;7364414;19;20028;-66
2023/06/08 11:00:48;;;;;;;9.05;5.00;;;;;;;;;;7367172;19;20014;-65
2023/06/08 11:03:18;;;;;;;6.53;4.47;;;;;;;;;;7365596;19;20026;-66
2023/06/08 11:05:44;;;;;;;;;;;;;;;;;;7365098;19;20408;-66
2023/06/08 11:08:11;;;;;;;10.45;4.60;;;;;;;;;;7369468;19;20369;-67
2023/06/08 11:10:39;;;;;;;5.55;4.20;;;;;;;;;;7400205;19;20031;-65
2023/06/08 11:13:23;;;;;;;5.38;4.05;;;;;;;;;;7380783;19;20090;-66
2023/06/08 11:15:48;;;;;;;5.68;4.13;;;;;;;;;;7374645;19;20007;-65
2023/06/08 11:18:18;;;;;;;7.03;4.50;;;;;;;;;;7379978;19;20040;-66
2023/06/08 11:20:44;;;;;;;6.63;4.35;;;;;;;;;;7379597;19;20056;-66
2023/06/08 11:23:11;;;;;;;6.15;4.30;;;;;;;;;;7375808;19;20003;-66
2023/06/08 11:25:36;;;;;;;6.30;4.05;;;;;;;;;;7397582;19;20014;-66
2023/06/08 11:28:03;;;;;;;5.93;4.18;;;;;;;;;;7376951;19;20480;-66
2023/06/08 11:30:35;;;;;;;5.93;4.30;;;;;;;;;;7378599;19;20022;-65
2023/06/08 11:33:02;;;;;;;7.60;4.60;;;;;;;;;;7379701;19;20050;-65
2023/06/08 11:35:28;;;;;;;8.15;4.50;;;;;;;;;;7373071;19;20011;-66
2023/06/08 11:37:55;;;;;;;7.47;4.45;;;;;;;;;;7390970;19;20006;-66
2023/06/08 11:40:21;;;;;;;6.85;4.68;;;;;;;;;;7366316;19;20038;-65
2023/06/08 11:42:47;;;;;;;7.50;4.72;;;;;;;;;;7368894;19;20011;-65
2023/06/08 11:45:14;;;;;;;7.67;4.93;;;;;;;;;;7369456;19;20031;-65
2023/06/08 11:47:43;;;;;;;9.30;5.10;;;;;;;;;;7369094;19;20727;-65
2023/06/08 11:50:10;;;;;;;10.67;5.50;;;;;;;;;;7367833;19;20453;-66
2023/06/08 11:52:39;;;;;;;7.82;5.18;;;;;;;;;;7389463;19;20005;-66
2023/06/08 11:55:13;;;;;;;6.60;5.03;;;;;;;;;;7363729;19;20033;-65
2023/06/08 11:58:00;;;;;;;7.63;5.35;;;;;;;;;;7365569;19;20033;-65
2023/06/08 12:00:32;;;;;;;7.22;5.28;;;;;;;;;;7364359;19;20022;-66
2023/06/08 12:03:00;;;;;;;7.55;5.03;;;;;;;;;;7369201;19;20045;-65
2023/06/08 12:05:28;;;;;;;11.57;5.05;;;;;;;;;;7366615;19;20019;-65
2023/06/08 12:08:02;;;;;;;7.07;4.28;;;;;;;;;;7382557;19;20006;-65
2023/06/08 12:10:36;;;;;;;6.53;4.72;;;;;;;;;;7365917;19;20010;-66
2023/06/08 12:13:22;;;;;;;5.75;4.20;;;;;;;;;;7366287;19;20029;-65
2023/06/08 12:15:50;;;;;;;7.50;4.95;;;;;;;;;;7360686;19;20039;-65
2023/06/08 12:18:17;;;;;;;6.78;4.30;;;;;;;;;;7362893;19;20010;-65
2023/06/08 12:20:44;;;;;;;8.55;4.95;;;;;;;;;;7368431;19;20026;-66
2023/06/08 12:23:12;;;;;;;6.22;4.45;;;;;;;;;;7368971;19;19998;-65
2023/06/08 12:25:37;;;;;;;6.25;4.53;;;;;;;;;;7389900;19;20539;-65
2023/06/08 12:28:03;;;;;;;6.65;4.65;;;;;;;;;;7366273;19;20006;-67
2023/06/08 12:30:28;;;;;;;8.70;4.93;;;;;;;;;;7364025;19;20002;-66
2023/06/08 12:32:55;;;;;;;6.43;4.70;;;;;;;;;;7357071;19;20002;-65
2023/06/08 12:35:24;;;;;;;9.63;4.50;;;;;;;;;;7362898;19;20083;-65
2023/06/08 12:37:50;;;;;;;7.22;4.53;;;;;;;;;;7383343;19;20027;-66
2023/06/08 12:40:17;;;;;;;6.47;4.50;;;;;;;;;;7361648;19;20071;-67
2023/06/08 12:42:46;;;;;;;6.05;4.63;;;;;;;;;;7361145;19;20033;-66
2023/06/08 12:45:13;;;;;;;7.72;4.40;;;;;;;;;;7366507;19;20358;-67
2023/06/08 12:47:38;;;;;;;6.70;4.18;;;;;;;;;;7364712;19;20015;-67
2023/06/08 12:50:04;;;;;;;8.10;4.05;;;;;;;;;;7391261;19;20013;-65
2023/06/08 12:52:30;;;;;;;6.63;4.43;;;;;;;;;;7391646;19;20006;-65
2023/06/08 12:54:55;;;;;;;7.88;4.35;;;;;;;;;;7366544;19;20018;-66
2023/06/08 12:57:20;;;;;;;9.10;4.47;;;;;;;;;;7365662;19;20010;-67
2023/06/08 12:59:46;;;;;;;7.03;4.93;;;;;;;;;;7365033;19;20019;-68
2023/06/08 13:02:11;;;;;;;6.40;4.50;;;;;;;;;;7365616;19;20248;-68
2023/06/08 13:04:36;;;;;;;6.00;4.60;;;;;;;;;;7387069;19;20002;-69
2023/06/08 13:07:02;;;;;;;7.22;4.78;;;;;;;;;;7364505;19;20073;-70
2023/06/08 13:09:28;;;;;;;7.53;4.50;;;;;;;;;;7360802;19;20006;-70
2023/06/08 13:11:53;;;;;;;7.03;5.45;;;;;;;;;;7361895;19;20368;-70
2023/06/08 13:14:18;;;;;;;7.18;5.15;;;;;;;;;;7362668;19;20040;-70
2023/06/08 13:16:44;;;;;;;9.02;5.72;;;;;;;;;;7382815;19;20496;-69
2023/06/08 13:19:09;;;;;;;10.98;4.75;;;;;;;;;;7362843;19;20362;-69
2023/06/08 13:21:35;;;;;;;7.82;5.57;;;;;;;;;;7363681;19;20002;-68
2023/06/08 13:24:03;;;;;;;10.70;4.90;;;;;;;;;;7361712;19;20011;-68
2023/06/08 13:26:28;;;;;;;12.77;5.40;;;;;;;;;;7362361;19;20010;-67
2023/06/08 13:28:54;;;;;;;9.25;5.78;;;;;;;;;;7385896;19;20009;-67
2023/06/08 13:31:19;;;;;;;14.07;6.43;;;;;;;;;;7367415;19;20017;-67
2023/06/08 13:33:45;;;;;;;12.77;5.60;;;;;;;;;;7364237;19;20032;-67
2023/06/08 13:36:10;;;;;;;8.25;5.80;;;;;;;;;;7361779;19;20480;-67
2023/06/08 13:38:35;;;;;;;8.77;6.70;;;;;;;;;;7369605;19;20017;-67
2023/06/08 13:41:00;;;;;;;9.48;6.07;;;;;;;;;;7392556;19;20005;-67
2023/06/08 13:43:26;;;;;;;10.45;6.50;;;;;;;;;;7366011;19;20341;-67
2023/06/08 13:45:57;;;;;;;8.57;5.70;;;;;;;;;;7368695;19;20038;-67
2023/06/08 13:48:26;;;;;;;8.10;5.65;;;;;;;;;;7368932;19;20564;-67
2023/06/08 13:50:53;;;;;;;8.98;5.85;;;;;;;;;;7371225;19;20034;-67
2023/06/08 13:53:18;;;;;;;8.93;6.47;;;;;;;;;;7370511;19;20378;-67
2023/06/08 13:55:44;;;;;;;30.85;6.10;;;;;;;;;;7388646;19;20002;-66
2023/06/08 13:58:09;;;;;;;8.05;5.25;;;;;;;;;;7361912;19;20018;-66
2023/06/08 14:00:35;;;;;;;7.32;5.03;;;;;;;;;;7366667;19;20048;-66
2023/06/08 14:03:02;;;;;;;10.75;5.80;;;;;;;;;;7367552;19;20011;-66
2023/06/08 14:05:28;;;;;;;10.55;5.90;;;;;;;;;;7369215;19;20006;-66
2023/06/08 14:07:53;;;;;;;10.25;5.65;;;;;;;;;;7383649;19;20010;-67
2023/06/08 14:10:20;;;;;;;12.38;5.18;;;;;;;;;;7366145;19;20349;-66
2023/06/08 14:12:47;;;;;;;13.18;4.78;;;;;;;;;;7365782;19;20043;-66
2023/06/08 14:15:15;;;;;;;13.73;5.18;;;;;;;;;;7366418;19;20404;-66
2023/06/08 14:17:40;;;;;;;13.10;5.22;;;;;;;;;;7361006;19;20638;-66
2023/06/08 14:20:06;;;;;;;7.00;4.47;;;;;;;;;;7364859;19;20504;-66
2023/06/08 14:22:31;;;;;;;6.18;4.18;;;;;;;;;;7387672;19;20003;-66
2023/06/08 14:24:56;;;;;;;7.28;4.30;;;;;;;;;;7365066;19;20014;-66
2023/06/08 14:27:22;;;;;;;8.82;4.45;;;;;;;;;;7364947;19;20010;-66
2023/06/08 14:29:47;;;;;;;8.80;3.90;;;;;;;;;;7363178;19;20009;-66
2023/06/08 14:32:13;;;;;;;6.90;4.30;;;;;;;;;;7366204;19;20653;-66
2023/06/08 14:34:38;;;;;;;6.03;3.92;;;;;;;;;;7375742;19;20393;-65
2023/06/08 14:37:03;;;;;;;9.00;4.40;;;;;;;;;;7362172;19;20007;-67
2023/06/08 14:39:30;;;;;;;7.25;3.90;;;;;;;;;;7368585;19;20036;-67
2023/06/08 14:41:55;;;;;;;7.03;4.40;;;;;;;;;;7362176;19;20556;-67